메인 페이지
METAR-TAF:

METAR-TAF

공항 :

Volk Field Air National Guard Base

Camp Douglas, 위스콘신, 미국

위도: 43-56N, 경도: 090-16W, 고도: 277m

현재 날씨관측

예보는 50분 전, 01:56시(UTC)에 발표되었습니다.
북서7kt
온도 -4°C
습도 63%
기압 1020 hPa
시정: 16.1km
고도 4300ft 상공 흐림

METAR: KVOK 270156Z 32007KT 10SM OVC043 M04/M10 A3013 RMK AO2A SLP221

시각: 20:46 (02:46 UTC)

예보

예보는 8 시간 34분 전, 18:12시(UTC)에 발표되었습니다.
예보 대상 시간: 26일 18시부터 27일 23시까지 (UTC)
12kt, 순간 최대 풍속 18kt
시정 10km 이상
고도 3400ft 상공 구름 많음
고도 18000ft 상공 구름 많음
전환 중
26일 23시부터 26일 24시까지 (UTC)
북서12kt, 순간 최대 풍속 18kt
시정 10km 이상
고도 1600ft 상공 구름 조금
전환 중
27일 05시부터 27일 06시까지 (UTC)
서북서9kt
시정: 2709m
고도 900ft 상공 구름 보통

TAF: KVOK 261812Z 2618/2723 35012G18KT 9999 BKN034 BKN180 QNH3016INS BECMG 2623/2624 32012G18KT 9999 FEW016 QNH3016INS BECMG 2705/2706 30009KT 9999 SCT009 QNH3010INS TXM02/2620Z TNM07/2711Z LAST NO AMDS AFT 2622 NEXT 2709

4,000개 이상의 공항 관측 자료 및 예보 (METAR 및 TAF 보고).

지도상에서 검색 가능한 기상관측소가 노란 점과 빨간 점으로 표시되어 있습니다.

기상관측소 명을 보려면 표시 위로 마우스를 이동하세요.

날씨 관측과 예보를 보려면 클릭하세요.

지도 변경 : 확대하려면 엑스 표시가 있는 녹색 버튼, 축소하려면 빼기 표시가 있는 녹색 버튼, 다음 페이지의 지도를 보려면 녹색 화살표를 클릭하세요.


METAR-TAF: